createdAt,value
2022-10-27T00:02:08.591Z,10.26
2022-10-27T00:04:34.959Z,10.28
2022-10-27T00:07:01.456Z,10.30
2022-10-27T00:09:27.867Z,10.28
2022-10-27T00:11:57.372Z,10.28
2022-10-27T00:14:23.873Z,10.28
2022-10-27T00:16:57.311Z,10.26
2022-10-27T00:19:24.902Z,10.27
2022-10-27T00:21:51.955Z,10.26
2022-10-27T00:24:19.205Z,10.26
2022-10-27T00:26:45.763Z,10.26
2022-10-27T00:29:12.201Z,10.25
2022-10-27T00:31:38.869Z,10.25
2022-10-27T00:34:05.263Z,10.25
2022-10-27T00:36:31.767Z,10.26
2022-10-27T00:38:59.360Z,10.33
2022-10-27T00:41:25.872Z,10.36
2022-10-27T00:43:52.328Z,10.39
2022-10-27T00:46:27.063Z,10.41
2022-10-27T00:48:55.533Z,10.45
2022-10-27T00:51:23.008Z,10.50
2022-10-27T00:53:49.738Z,10.56
2022-10-27T00:56:16.851Z,10.59
2022-10-27T00:58:45.223Z,10.67
2022-10-27T01:01:12.266Z,10.71
2022-10-27T01:03:39.058Z,10.78
2022-10-27T01:06:05.684Z,10.82
2022-10-27T01:08:32.242Z,10.88
2022-10-27T01:10:58.663Z,10.94
2022-10-27T01:13:25.144Z,10.97
2022-10-27T01:15:51.566Z,11.03
2022-10-27T01:18:17.961Z,11.06
2022-10-27T01:20:50.604Z,11.10
2022-10-27T01:23:35.473Z,11.15
2022-10-27T01:26:07.846Z,11.23
2022-10-27T01:28:52.917Z,11.29
2022-10-27T01:31:22.477Z,11.32
2022-10-27T01:33:50.443Z,11.35
2022-10-27T01:36:26.505Z,11.36
2022-10-27T01:39:04.110Z,11.39
2022-10-27T01:41:50.597Z,11.38
2022-10-27T01:44:24.819Z,11.39
2022-10-27T01:46:51.536Z,11.38
2022-10-27T01:49:17.957Z,11.37
2022-10-27T01:51:44.408Z,11.35
2022-10-27T01:54:10.844Z,11.29
2022-10-27T01:56:49.462Z,11.27
2022-10-27T01:59:25.482Z,11.21
2022-10-27T02:01:54.904Z,11.16
2022-10-27T02:04:21.296Z,11.12
2022-10-27T02:06:47.724Z,11.09
2022-10-27T02:09:18.861Z,11.04
2022-10-27T02:11:46.673Z,11.00
2022-10-27T02:14:14.013Z,10.96
2022-10-27T02:16:43.246Z,10.91
2022-10-27T02:19:16.331Z,10.88
2022-10-27T02:21:44.515Z,10.87
2022-10-27T02:24:10.945Z,10.86
2022-10-27T02:26:45.469Z,10.82
2022-10-27T02:29:17.548Z,10.80
2022-10-27T02:31:47.376Z,10.80
2022-10-27T02:34:14.251Z,10.81
2022-10-27T02:36:40.783Z,10.80
2022-10-27T02:39:07.269Z,10.76
2022-10-27T02:41:33.697Z,10.78
2022-10-27T02:44:00.119Z,10.76
2022-10-27T02:46:26.649Z,10.77
2022-10-27T02:48:53.110Z,10.79
2022-10-27T02:51:19.569Z,10.78
2022-10-27T02:53:45.962Z,10.75
2022-10-27T02:56:12.572Z,10.74
2022-10-27T02:58:39.644Z,10.72
2022-10-27T03:01:06.447Z,10.70
2022-10-27T03:03:33.016Z,10.66
2022-10-27T03:05:59.574Z,10.70
2022-10-27T03:08:25.973Z,10.70
2022-10-27T03:10:52.422Z,10.70
2022-10-27T03:13:18.824Z,10.65
2022-10-27T03:15:45.829Z,10.60
2022-10-27T03:18:12.323Z,10.56
2022-10-27T03:20:38.724Z,10.53
2022-10-27T03:23:05.196Z,10.42
2022-10-27T03:25:31.871Z,10.34
2022-10-27T03:27:58.253Z,10.25
2022-10-27T03:30:24.669Z,10.19
2022-10-27T03:32:52.327Z,10.14
2022-10-27T03:35:19.711Z,10.03
2022-10-27T03:37:46.168Z,9.95
2022-10-27T03:40:12.994Z,9.90
2022-10-27T03:42:42.514Z,9.83
2022-10-27T03:45:12.189Z,9.82
2022-10-27T03:47:38.851Z,9.80
2022-10-27T03:50:05.501Z,9.75
2022-10-27T03:52:33.293Z,9.73
2022-10-27T03:55:00.061Z,9.66
2022-10-27T03:57:26.522Z,9.62
2022-10-27T03:59:53.001Z,9.58
2022-10-27T04:02:19.447Z,9.54
2022-10-27T04:04:45.962Z,9.50
2022-10-27T04:07:12.328Z,9.47
2022-10-27T04:09:38.746Z,9.44
2022-10-27T04:12:05.963Z,9.39
2022-10-27T04:14:32.397Z,9.38
2022-10-27T04:16:58.768Z,9.35
2022-10-27T04:19:25.269Z,9.33
2022-10-27T04:21:51.986Z,9.30
2022-10-27T04:24:18.399Z,9.28
2022-10-27T04:26:44.783Z,9.27
2022-10-27T04:29:11.239Z,9.23
2022-10-27T04:31:37.657Z,9.25
2022-10-27T04:34:04.105Z,9.39
2022-10-27T04:36:30.826Z,9.43
2022-10-27T04:38:57.276Z,9.44
2022-10-27T04:41:23.791Z,9.45
2022-10-27T04:46:18.613Z,9.44
2022-10-27T04:48:45.069Z,9.43
2022-10-27T04:51:11.494Z,9.42
2022-10-27T04:53:37.929Z,9.41
2022-10-27T04:56:04.362Z,9.32
2022-10-27T04:58:30.805Z,9.24
2022-10-27T05:00:57.235Z,9.14
2022-10-27T05:03:23.637Z,9.02
2022-10-27T05:05:50.078Z,8.97
2022-10-27T05:08:16.501Z,8.96
2022-10-27T05:10:42.931Z,8.99
2022-10-27T05:13:09.352Z,9.00
2022-10-27T05:15:35.901Z,8.96
2022-10-27T05:18:02.963Z,8.92
2022-10-27T05:20:29.897Z,8.90
2022-10-27T05:22:56.322Z,8.90
2022-10-27T05:25:22.795Z,8.88
2022-10-27T05:27:49.486Z,8.95
2022-10-27T05:30:16.066Z,8.96
2022-10-27T05:32:46.479Z,8.97
2022-10-27T05:35:14.089Z,8.99
2022-10-27T05:37:43.787Z,8.98
2022-10-27T05:40:10.476Z,9.01
2022-10-27T05:42:36.881Z,8.95
2022-10-27T05:45:03.443Z,8.89
2022-10-27T05:47:29.835Z,8.82
2022-10-27T05:49:56.260Z,8.79
2022-10-27T05:52:22.635Z,8.76
2022-10-27T05:54:49.067Z,8.74
2022-10-27T05:57:15.482Z,8.77
2022-10-27T05:59:41.965Z,8.77
2022-10-27T06:02:09.273Z,8.78
2022-10-27T06:04:35.749Z,8.76
2022-10-27T06:07:02.160Z,8.73
2022-10-27T06:09:28.627Z,8.75
2022-10-27T06:11:55.078Z,8.77
2022-10-27T06:14:22.362Z,8.78
2022-10-27T06:16:50.891Z,8.79
2022-10-27T06:19:17.562Z,8.78
2022-10-27T06:21:44.183Z,8.73
2022-10-27T06:24:11.509Z,8.68
2022-10-27T06:26:37.864Z,8.65
2022-10-27T06:29:04.256Z,8.66
2022-10-27T06:31:30.622Z,8.75
2022-10-27T06:33:57.066Z,8.80
2022-10-27T06:36:23.567Z,8.80
2022-10-27T06:38:49.973Z,8.59
2022-10-27T06:41:17.841Z,8.54
2022-10-27T06:43:44.976Z,8.47
2022-10-27T06:46:11.555Z,8.43
2022-10-27T06:48:37.889Z,8.38
2022-10-27T06:51:04.342Z,8.35
2022-10-27T06:53:30.992Z,8.33
2022-10-27T06:55:58.495Z,8.33
2022-10-27T06:58:24.904Z,8.35
2022-10-27T07:00:51.321Z,8.37
2022-10-27T07:03:17.807Z,8.42
2022-10-27T07:05:44.358Z,8.47
2022-10-27T07:08:10.930Z,8.54
2022-10-27T07:10:37.382Z,8.60
2022-10-27T07:13:03.924Z,8.66
2022-10-27T07:15:33.081Z,8.74
2022-10-27T07:18:01.090Z,8.81
2022-10-27T07:20:29.244Z,8.90
2022-10-27T07:22:56.181Z,8.99
2022-10-27T07:25:22.636Z,9.07
2022-10-27T07:27:54.423Z,9.20
2022-10-27T07:30:22.442Z,9.38
2022-10-27T07:32:48.995Z,9.53
2022-10-27T07:35:16.010Z,9.68
2022-10-27T07:37:46.256Z,9.80
2022-10-27T07:40:13.605Z,9.95
2022-10-27T07:42:47.088Z,10.11
2022-10-27T07:45:14.301Z,10.29
2022-10-27T07:47:49.355Z,10.44
2022-10-27T07:50:16.764Z,10.57
2022-10-27T07:52:44.220Z,10.66
2022-10-27T07:55:14.457Z,10.77
2022-10-27T07:57:42.389Z,10.89
2022-10-27T08:00:13.079Z,11.01
2022-10-27T08:02:39.747Z,11.14
2022-10-27T08:05:06.510Z,11.24
2022-10-27T08:07:33.073Z,11.37
2022-10-27T08:09:59.456Z,11.49
2022-10-27T08:12:25.905Z,11.70
2022-10-27T08:14:55.702Z,11.84
2022-10-27T08:17:22.478Z,11.93
2022-10-27T08:19:48.940Z,12.02
2022-10-27T08:22:15.308Z,12.15
2022-10-27T08:24:42.449Z,12.29
2022-10-27T08:27:08.852Z,12.39
2022-10-27T08:29:35.241Z,12.55
2022-10-27T08:32:01.679Z,12.73
2022-10-27T08:34:28.027Z,12.90
2022-10-27T08:36:54.531Z,13.06
2022-10-27T08:39:20.892Z,13.24
2022-10-27T08:41:53.069Z,13.43
2022-10-27T08:44:19.520Z,13.59
2022-10-27T08:46:50.517Z,13.80
2022-10-27T08:49:28.352Z,14.00
2022-10-27T08:51:58.027Z,14.21
2022-10-27T08:54:27.507Z,14.48
2022-10-27T08:56:55.497Z,14.83
2022-10-27T08:59:24.097Z,15.23
2022-10-27T09:02:09.367Z,15.57
2022-10-27T09:04:53.444Z,15.92
2022-10-27T09:07:20.040Z,16.27
2022-10-27T09:09:50.976Z,16.61
2022-10-27T09:12:23.171Z,16.84
2022-10-27T09:14:49.502Z,17.08
2022-10-27T09:17:28.179Z,17.33
2022-10-27T09:19:56.863Z,17.39
2022-10-27T09:22:24.867Z,17.40
2022-10-27T09:24:57.607Z,17.65
2022-10-27T09:27:24.721Z,17.74
2022-10-27T09:29:52.063Z,17.72
2022-10-27T09:32:20.830Z,17.89
2022-10-27T09:34:53.807Z,18.08
2022-10-27T09:37:21.178Z,18.17
2022-10-27T09:39:49.280Z,18.16
2022-10-27T09:42:16.361Z,18.28
2022-10-27T09:44:55.532Z,18.29
2022-10-27T09:49:57.983Z,18.29
2022-10-27T09:52:28.447Z,18.29
2022-10-27T09:54:56.046Z,18.36
2022-10-27T09:57:26.591Z,18.35
2022-10-27T09:59:59.057Z,18.33
2022-10-27T10:02:30.393Z,18.29
2022-10-27T10:04:57.718Z,18.38
2022-10-27T10:07:37.753Z,18.43
2022-10-27T10:10:06.921Z,18.42
2022-10-27T10:12:33.527Z,18.50
2022-10-27T10:15:12.054Z,18.56
2022-10-27T10:17:40.538Z,18.62
2022-10-27T10:20:08.582Z,18.64
2022-10-27T10:22:39.006Z,18.67
2022-10-27T10:25:22.559Z,18.66
2022-10-27T10:27:56.633Z,18.70
2022-10-27T10:30:25.054Z,18.79
2022-10-27T10:32:54.118Z,18.85
2022-10-27T10:35:40.805Z,18.97
2022-10-27T10:38:30.383Z,18.98
2022-10-27T10:41:01.074Z,19.06
2022-10-27T10:43:27.596Z,19.09
2022-10-27T10:45:54.195Z,19.13
2022-10-27T10:48:26.708Z,19.25
2022-10-27T10:50:53.419Z,19.34
2022-10-27T10:53:26.532Z,19.43
2022-10-27T10:55:57.056Z,19.54
2022-10-27T10:58:25.515Z,19.63
2022-10-27T11:00:56.554Z,19.64
2022-10-27T11:03:24.705Z,19.74
2022-10-27T11:05:59.314Z,19.92
2022-10-27T11:08:39.577Z,20.04
2022-10-27T11:11:16.190Z,20.02
2022-10-27T11:13:48.243Z,20.05
2022-10-27T11:16:14.989Z,20.09
2022-10-27T11:18:41.422Z,20.20
2022-10-27T11:21:13.413Z,20.26
2022-10-27T11:23:48.153Z,20.27
2022-10-27T11:26:17.006Z,20.33
2022-10-27T11:28:46.436Z,20.43
2022-10-27T11:31:23.911Z,20.53
2022-10-27T11:34:09.172Z,20.51
2022-10-27T11:36:44.301Z,20.62
2022-10-27T11:39:18.939Z,20.70
2022-10-27T11:41:50.076Z,20.82
2022-10-27T11:44:29.130Z,20.95
2022-10-27T11:47:05.891Z,21.00
2022-10-27T11:49:35.444Z,21.02
2022-10-27T11:52:14.227Z,21.00
2022-10-27T11:54:40.981Z,21.08
2022-10-27T11:57:38.587Z,21.15
2022-10-27T12:00:03.887Z,21.23
2022-10-27T12:02:49.262Z,21.20
2022-10-27T12:05:27.817Z,21.18
2022-10-27T12:08:03.089Z,21.23
2022-10-27T12:10:29.465Z,21.19
2022-10-27T12:13:03.146Z,21.26
2022-10-27T12:15:34.402Z,21.36
2022-10-27T12:18:06.143Z,21.42
2022-10-27T12:20:45.064Z,21.38
2022-10-27T12:23:14.514Z,21.33
2022-10-27T12:25:50.188Z,21.32
2022-10-27T12:28:17.615Z,21.41
2022-10-27T12:30:46.015Z,21.34
2022-10-27T12:33:17.599Z,21.39
2022-10-27T12:35:56.081Z,21.47
2022-10-27T12:38:41.379Z,21.48
2022-10-27T12:41:16.653Z,21.49
2022-10-27T12:43:43.113Z,21.43
2022-10-27T12:46:12.617Z,21.47
2022-10-27T12:48:53.682Z,21.50
2022-10-27T12:51:35.753Z,21.47
2022-10-27T12:54:02.141Z,21.48
2022-10-27T12:56:31.663Z,21.50
2022-10-27T12:59:09.980Z,21.46
2022-10-27T13:01:56.853Z,21.37
2022-10-27T13:04:23.324Z,21.36
2022-10-27T13:07:08.807Z,21.32
2022-10-27T13:09:35.183Z,21.32
2022-10-27T13:12:03.087Z,21.32
2022-10-27T13:14:32.449Z,21.39
2022-10-27T13:17:21.344Z,21.46
2022-10-27T13:19:54.818Z,21.48
2022-10-27T13:22:44.638Z,21.51
2022-10-27T13:25:11.079Z,21.49
2022-10-27T13:27:52.079Z,21.54
2022-10-27T13:30:21.038Z,21.47
2022-10-27T13:32:47.595Z,21.40
2022-10-27T13:35:14.091Z,21.32
2022-10-27T13:37:49.571Z,21.27
2022-10-27T13:40:18.996Z,21.20
2022-10-27T13:42:50.175Z,21.19
2022-10-27T13:45:35.275Z,21.15
2022-10-27T13:48:08.180Z,21.02
2022-10-27T13:50:36.160Z,20.90
2022-10-27T13:53:15.138Z,20.82
2022-10-27T13:55:41.595Z,20.69
2022-10-27T13:58:14.109Z,20.66
2022-10-27T14:00:45.167Z,20.54
2022-10-27T14:03:11.637Z,20.48
2022-10-27T14:05:56.546Z,20.41
2022-10-27T14:08:24.207Z,20.35
2022-10-27T14:10:51.880Z,20.24
2022-10-27T14:13:23.750Z,20.14
2022-10-27T14:15:56.243Z,20.13
2022-10-27T14:18:25.660Z,20.07
2022-10-27T14:23:25.293Z,19.96
2022-10-27T14:28:23.659Z,19.81
2022-10-27T14:31:15.648Z,19.83
2022-10-27T14:33:42.048Z,19.66
2022-10-27T14:36:14.586Z,19.58
2022-10-27T14:38:46.135Z,19.55
2022-10-27T14:41:20.092Z,19.45
2022-10-27T14:43:56.870Z,19.33
2022-10-27T14:46:24.886Z,19.22
2022-10-27T14:49:02.626Z,19.12
2022-10-27T14:51:31.952Z,19.05
2022-10-27T14:53:58.702Z,18.93
2022-10-27T14:56:26.160Z,18.84
2022-10-27T14:58:57.121Z,18.71
2022-10-27T15:01:35.751Z,18.60
2022-10-27T15:04:14.836Z,18.45
2022-10-27T15:06:43.439Z,18.38
2022-10-27T15:09:23.948Z,18.26
2022-10-27T15:11:50.356Z,18.18
2022-10-27T15:14:17.146Z,18.09
2022-10-27T15:16:45.300Z,17.97
2022-10-27T15:19:14.736Z,17.86
2022-10-27T15:21:41.181Z,17.80
2022-10-27T15:24:08.239Z,17.71
2022-10-27T15:26:34.837Z,17.61
2022-10-27T15:29:03.654Z,17.51
2022-10-27T15:31:38.071Z,17.39
2022-10-27T15:34:06.547Z,17.25
2022-10-27T15:36:32.939Z,17.12
2022-10-27T15:39:09.268Z,17.08
2022-10-27T15:41:36.796Z,16.96
2022-10-27T15:44:03.150Z,16.79
2022-10-27T15:46:33.130Z,16.74
2022-10-27T15:49:02.580Z,16.66
2022-10-27T15:51:44.241Z,16.54
2022-10-27T15:54:23.113Z,16.44
2022-10-27T15:56:51.546Z,16.36
2022-10-27T15:59:23.553Z,16.29
2022-10-27T16:01:50.926Z,16.22
2022-10-27T16:04:28.004Z,16.11
2022-10-27T16:07:14.501Z,16.01
2022-10-27T16:09:44.792Z,15.95
2022-10-27T16:12:14.649Z,15.91
2022-10-27T16:14:44.802Z,15.86
2022-10-27T16:17:16.114Z,15.78
2022-10-27T16:19:42.482Z,15.71
2022-10-27T16:22:13.364Z,15.67
2022-10-27T16:24:39.768Z,15.63
2022-10-27T16:27:06.624Z,15.56
2022-10-27T16:29:33.016Z,15.51
2022-10-27T16:31:59.410Z,15.42
2022-10-27T16:34:27.186Z,15.39
2022-10-27T16:36:55.246Z,15.31
2022-10-27T16:39:21.618Z,15.28
2022-10-27T16:41:48.060Z,15.20
2022-10-27T16:44:14.870Z,15.10
2022-10-27T16:46:41.275Z,15.01
2022-10-27T16:49:07.711Z,14.96
2022-10-27T16:51:34.051Z,14.90
2022-10-27T16:54:00.404Z,14.83
2022-10-27T16:56:26.810Z,14.75
2022-10-27T16:58:53.194Z,14.67
2022-10-27T17:01:21.058Z,14.62
2022-10-27T17:03:47.818Z,14.52
2022-10-27T17:06:16.861Z,14.46
2022-10-27T17:08:43.518Z,14.42
2022-10-27T17:11:13.954Z,14.35
2022-10-27T17:13:40.514Z,14.34
2022-10-27T17:16:08.042Z,14.32
2022-10-27T17:18:34.470Z,14.32
2022-10-27T17:21:01.415Z,14.32
2022-10-27T17:23:28.389Z,14.36
2022-10-27T17:25:59.556Z,14.37
2022-10-27T17:28:25.934Z,14.42
2022-10-27T17:30:53.593Z,14.42
2022-10-27T17:33:19.976Z,14.40
2022-10-27T17:35:59.520Z,14.38
2022-10-27T17:38:26.565Z,14.36
2022-10-27T17:40:56.923Z,14.36
2022-10-27T17:43:23.740Z,14.33
2022-10-27T17:46:16.419Z,14.31
2022-10-27T17:48:44.057Z,14.25
2022-10-27T17:51:14.775Z,14.21
2022-10-27T17:53:42.192Z,14.15
2022-10-27T17:56:10.359Z,14.08
2022-10-27T17:58:37.815Z,14.03
2022-10-27T18:01:06.318Z,13.97
2022-10-27T18:03:38.132Z,13.92
2022-10-27T18:06:05.632Z,13.86
2022-10-27T18:08:32.372Z,13.86
2022-10-27T18:11:14.956Z,13.79
2022-10-27T18:13:42.856Z,13.71
2022-10-27T18:16:22.637Z,13.68
2022-10-27T18:18:49.312Z,13.64
2022-10-27T18:21:15.746Z,13.63
2022-10-27T18:23:42.162Z,13.63
2022-10-27T18:26:08.655Z,13.60
2022-10-27T18:28:35.355Z,13.55
2022-10-27T18:31:02.529Z,13.52
2022-10-27T18:33:29.317Z,13.48
2022-10-27T18:35:58.925Z,13.44
2022-10-27T18:38:25.435Z,13.40
2022-10-27T18:40:51.853Z,13.36
2022-10-27T18:43:18.248Z,13.32
2022-10-27T18:45:47.649Z,13.28
2022-10-27T18:48:13.979Z,13.22
2022-10-27T18:50:40.336Z,13.19
2022-10-27T18:53:07.367Z,13.14
2022-10-27T18:55:37.553Z,13.11
2022-10-27T18:58:04.079Z,13.10
2022-10-27T19:00:30.793Z,13.06
2022-10-27T19:02:57.124Z,13.06
2022-10-27T19:05:23.579Z,13.06
2022-10-27T19:07:49.924Z,13.05
2022-10-27T19:10:16.309Z,13.03
2022-10-27T19:12:42.630Z,13.02
2022-10-27T19:15:09.282Z,13.03
2022-10-27T19:17:35.615Z,13.05
2022-10-27T19:20:02.023Z,13.12
2022-10-27T19:22:28.462Z,13.16
2022-10-27T19:24:54.895Z,13.20
2022-10-27T19:27:21.242Z,13.21
2022-10-27T19:29:47.627Z,13.24
2022-10-27T19:32:14.664Z,13.23
2022-10-27T19:34:43.149Z,13.23
2022-10-27T19:37:11.356Z,13.24
2022-10-27T19:39:37.712Z,13.22
2022-10-27T19:42:04.141Z,13.24
2022-10-27T19:44:30.635Z,13.27
2022-10-27T19:46:57.458Z,13.33
2022-10-27T19:49:23.822Z,13.29
2022-10-27T19:51:50.321Z,13.31
2022-10-27T19:54:17.976Z,13.30
2022-10-27T19:56:49.039Z,13.29
2022-10-27T19:59:17.018Z,13.28
2022-10-27T20:01:48.784Z,13.26
2022-10-27T20:04:18.110Z,13.21
2022-10-27T20:06:46.508Z,13.16
2022-10-27T20:09:17.293Z,13.14
2022-10-27T20:11:44.719Z,13.13
2022-10-27T20:14:11.655Z,13.08
2022-10-27T20:16:39.334Z,13.08
2022-10-27T20:19:37.942Z,13.09
2022-10-27T20:22:04.703Z,13.12
2022-10-27T20:24:31.171Z,13.11
2022-10-27T20:26:57.560Z,13.10
2022-10-27T20:29:26.686Z,13.12
2022-10-27T20:31:55.337Z,13.10
2022-10-27T20:34:21.989Z,13.11
2022-10-27T20:36:48.418Z,13.10
2022-10-27T20:39:15.175Z,13.08
2022-10-27T20:41:41.565Z,13.06
2022-10-27T20:44:08.004Z,13.03
2022-10-27T20:46:34.763Z,13.01
2022-10-27T20:49:01.355Z,13.04
2022-10-27T20:51:29.041Z,13.01
2022-10-27T20:53:55.526Z,12.99
2022-10-27T20:56:21.855Z,13.01
2022-10-27T20:58:49.349Z,13.01
2022-10-27T21:01:27.469Z,12.98
2022-10-27T21:03:54.965Z,12.95
2022-10-27T21:06:21.344Z,12.91
2022-10-27T21:08:47.930Z,12.90
2022-10-27T21:11:14.476Z,12.89
2022-10-27T21:13:40.947Z,12.89
2022-10-27T21:16:07.468Z,12.86
2022-10-27T21:18:33.927Z,12.84
2022-10-27T21:21:00.355Z,12.83
2022-10-27T21:23:26.807Z,12.80
2022-10-27T21:25:53.192Z,12.78
2022-10-27T21:28:19.640Z,12.73
2022-10-27T21:30:46.057Z,12.72
2022-10-27T21:33:12.548Z,12.70
2022-10-27T21:35:38.930Z,12.68
2022-10-27T21:38:05.391Z,12.64
2022-10-27T21:40:31.985Z,12.65
2022-10-27T21:42:58.426Z,12.66
2022-10-27T21:45:24.951Z,12.67
2022-10-27T21:47:51.868Z,12.66
2022-10-27T21:50:18.449Z,12.64
2022-10-27T21:52:44.981Z,12.61
2022-10-27T21:55:11.519Z,12.57
2022-10-27T21:57:37.962Z,12.56
2022-10-27T22:00:05.342Z,12.56
2022-10-27T22:02:31.844Z,12.55
2022-10-27T22:04:58.275Z,12.57
2022-10-27T22:07:25.489Z,12.54
2022-10-27T22:09:51.945Z,12.54
2022-10-27T22:12:18.347Z,12.55
2022-10-27T22:14:44.777Z,12.55
2022-10-27T22:17:11.293Z,12.57
2022-10-27T22:19:37.783Z,12.56
2022-10-27T22:22:04.626Z,12.53
2022-10-27T22:24:31.059Z,12.51
2022-10-27T22:26:57.447Z,12.49
2022-10-27T22:29:23.893Z,12.46
2022-10-27T22:31:50.275Z,12.43
2022-10-27T22:34:16.749Z,12.43
2022-10-27T22:36:43.246Z,12.43
2022-10-27T22:39:11.759Z,12.41
2022-10-27T22:41:38.214Z,12.40
2022-10-27T22:44:06.264Z,12.42
2022-10-27T22:46:33.535Z,12.40
2022-10-27T22:49:00.264Z,12.42
2022-10-27T22:51:27.511Z,12.39
2022-10-27T22:53:54.952Z,12.36
2022-10-27T22:56:21.410Z,12.33
2022-10-27T22:58:48.932Z,12.29
2022-10-27T23:01:20.196Z,12.28
2022-10-27T23:03:50.436Z,12.25
2022-10-27T23:06:16.870Z,12.27
2022-10-27T23:08:43.249Z,12.25
2022-10-27T23:11:09.706Z,12.27
2022-10-27T23:13:37.179Z,12.32
2022-10-27T23:16:05.329Z,12.34
2022-10-27T23:18:33.087Z,12.32
2022-10-27T23:21:00.669Z,12.29
2022-10-27T23:23:28.210Z,12.26
2022-10-27T23:25:54.963Z,12.24
2022-10-27T23:28:21.520Z,12.22
2022-10-27T23:30:48.087Z,12.22
2022-10-27T23:33:15.188Z,12.22
2022-10-27T23:35:41.967Z,12.19
2022-10-27T23:38:08.527Z,12.16
2022-10-27T23:40:35.220Z,12.16
2022-10-27T23:43:01.712Z,12.14
2022-10-27T23:45:28.148Z,12.13
2022-10-27T23:47:54.517Z,12.06
2022-10-27T23:50:21.203Z,12.01
2022-10-27T23:52:47.667Z,11.98
2022-10-27T23:55:14.169Z,11.95
2022-10-27T23:57:40.583Z,11.93
